sensor_id;sensor_type;location;lat;lon;timestamp;temperature;humidity
52669;DHT22;59898;52.786;6.892;2023-07-20T00:01:17;17.30;77.00
52669;DHT22;59898;52.786;6.892;2023-07-20T00:04:38;17.30;77.30
52669;DHT22;59898;52.786;6.892;2023-07-20T00:07:58;17.30;77.30
52669;DHT22;59898;52.786;6.892;2023-07-20T00:11:19;17.20;77.50
52669;DHT22;59898;52.786;6.892;2023-07-20T00:14:39;17.20;77.50
52669;DHT22;59898;52.786;6.892;2023-07-20T00:18:00;17.20;77.80
52669;DHT22;59898;52.786;6.892;2023-07-20T00:21:21;17.20;77.90
52669;DHT22;59898;52.786;6.892;2023-07-20T00:24:42;17.20;78.10
52669;DHT22;59898;52.786;6.892;2023-07-20T00:28:02;17.10;78.30
52669;DHT22;59898;52.786;6.892;2023-07-20T00:31:23;17.10;78.60
52669;DHT22;59898;52.786;6.892;2023-07-20T00:34:43;17.10;78.90
52669;DHT22;59898;52.786;6.892;2023-07-20T00:38:04;17.10;78.90
52669;DHT22;59898;52.786;6.892;2023-07-20T00:41:25;17.10;79.00
52669;DHT22;59898;52.786;6.892;2023-07-20T00:44:49;17.10;79.20
52669;DHT22;59898;52.786;6.892;2023-07-20T00:48:10;17.00;79.20
52669;DHT22;59898;52.786;6.892;2023-07-20T00:51:31;17.00;79.30
52669;DHT22;59898;52.786;6.892;2023-07-20T00:54:52;17.00;79.40
52669;DHT22;59898;52.786;6.892;2023-07-20T00:58:16;17.00;79.50
52669;DHT22;59898;52.786;6.892;2023-07-20T01:01:37;17.00;79.50
52669;DHT22;59898;52.786;6.892;2023-07-20T01:04:57;17.00;79.40
52669;DHT22;59898;52.786;6.892;2023-07-20T01:08:26;17.00;79.30
52669;DHT22;59898;52.786;6.892;2023-07-20T01:12:05;16.90;79.40
52669;DHT22;59898;52.786;6.892;2023-07-20T01:15:27;16.90;79.50
52669;DHT22;59898;52.786;6.892;2023-07-20T01:18:47;16.90;79.70
52669;DHT22;59898;52.786;6.892;2023-07-20T01:29:44;16.90;79.80
52669;DHT22;59898;52.786;6.892;2023-07-20T01:33:14;16.90;79.70
52669;DHT22;59898;52.786;6.892;2023-07-20T01:36:37;16.90;79.70
52669;DHT22;59898;52.786;6.892;2023-07-20T01:39:59;16.80;79.90
52669;DHT22;59898;52.786;6.892;2023-07-20T01:43:20;16.80;79.80
52669;DHT22;59898;52.786;6.892;2023-07-20T01:46:41;16.80;79.90
52669;DHT22;59898;52.786;6.892;2023-07-20T01:50:01;16.80;79.90
52669;DHT22;59898;52.786;6.892;2023-07-20T01:53:22;16.80;79.90
52669;DHT22;59898;52.786;6.892;2023-07-20T01:56:43;16.80;79.80
52669;DHT22;59898;52.786;6.892;2023-07-20T02:00:04;16.70;79.70
52669;DHT22;59898;52.786;6.892;2023-07-20T02:03:25;16.70;79.70
52669;DHT22;59898;52.786;6.892;2023-07-20T02:06:47;16.70;79.80
52669;DHT22;59898;52.786;6.892;2023-07-20T02:10:07;16.70;79.80
52669;DHT22;59898;52.786;6.892;2023-07-20T02:13:28;16.60;80.00
52669;DHT22;59898;52.786;6.892;2023-07-20T02:16:48;16.60;80.10
52669;DHT22;59898;52.786;6.892;2023-07-20T02:20:14;16.60;80.40
52669;DHT22;59898;52.786;6.892;2023-07-20T02:23:34;16.50;80.40
52669;DHT22;59898;52.786;6.892;2023-07-20T02:26:55;16.50;80.60
52669;DHT22;59898;52.786;6.892;2023-07-20T02:30:15;16.50;80.70
52669;DHT22;59898;52.786;6.892;2023-07-20T02:33:36;16.50;80.70
52669;DHT22;59898;52.786;6.892;2023-07-20T02:36:57;16.40;80.80
52669;DHT22;59898;52.786;6.892;2023-07-20T02:40:19;16.40;80.90
52669;DHT22;59898;52.786;6.892;2023-07-20T02:43:39;16.40;80.80
52669;DHT22;59898;52.786;6.892;2023-07-20T02:47:00;16.40;81.00
52669;DHT22;59898;52.786;6.892;2023-07-20T02:50:22;16.30;81.00
52669;DHT22;59898;52.786;6.892;2023-07-20T02:53:42;16.30;81.20
52669;DHT22;59898;52.786;6.892;2023-07-20T02:57:03;16.30;81.20
52669;DHT22;59898;52.786;6.892;2023-07-20T03:00:24;16.20;81.30
52669;DHT22;59898;52.786;6.892;2023-07-20T03:03:44;16.30;81.30
52669;DHT22;59898;52.786;6.892;2023-07-20T03:07:08;16.20;81.30
52669;DHT22;59898;52.786;6.892;2023-07-20T03:10:28;16.20;81.20
52669;DHT22;59898;52.786;6.892;2023-07-20T03:13:49;16.20;81.30
52669;DHT22;59898;52.786;6.892;2023-07-20T03:17:10;16.10;81.40
52669;DHT22;59898;52.786;6.892;2023-07-20T03:20:31;16.00;81.60
52669;DHT22;59898;52.786;6.892;2023-07-20T03:23:52;15.90;81.60
52669;DHT22;59898;52.786;6.892;2023-07-20T03:27:12;15.90;81.80
52669;DHT22;59898;52.786;6.892;2023-07-20T03:30:33;15.80;81.80
52669;DHT22;59898;52.786;6.892;2023-07-20T03:33:54;15.80;81.90
52669;DHT22;59898;52.786;6.892;2023-07-20T03:37:15;15.70;81.90
52669;DHT22;59898;52.786;6.892;2023-07-20T03:40:36;15.70;82.00
52669;DHT22;59898;52.786;6.892;2023-07-20T03:43:56;15.60;82.00
52669;DHT22;59898;52.786;6.892;2023-07-20T03:47:17;15.60;82.00
52669;DHT22;59898;52.786;6.892;2023-07-20T03:50:38;15.50;82.10
52669;DHT22;59898;52.786;6.892;2023-07-20T03:53:58;15.50;82.00
52669;DHT22;59898;52.786;6.892;2023-07-20T03:57:19;15.50;82.00
52669;DHT22;59898;52.786;6.892;2023-07-20T04:00:44;15.50;81.90
52669;DHT22;59898;52.786;6.892;2023-07-20T04:04:07;15.50;81.80
52669;DHT22;59898;52.786;6.892;2023-07-20T04:07:27;15.60;81.50
52669;DHT22;59898;52.786;6.892;2023-07-20T04:10:48;15.50;81.40
52669;DHT22;59898;52.786;6.892;2023-07-20T04:14:08;15.50;81.50
52669;DHT22;59898;52.786;6.892;2023-07-20T04:17:29;15.50;81.80
52669;DHT22;59898;52.786;6.892;2023-07-20T04:20:50;15.40;81.70
52669;DHT22;59898;52.786;6.892;2023-07-20T04:24:11;15.40;81.90
52669;DHT22;59898;52.786;6.892;2023-07-20T04:27:31;15.40;81.90
52669;DHT22;59898;52.786;6.892;2023-07-20T04:30:52;15.40;82.00
52669;DHT22;59898;52.786;6.892;2023-07-20T04:34:13;15.30;82.00
52669;DHT22;59898;52.786;6.892;2023-07-20T04:37:33;15.30;82.10
52669;DHT22;59898;52.786;6.892;2023-07-20T04:40:54;15.30;82.00
52669;DHT22;59898;52.786;6.892;2023-07-20T04:44:15;15.30;82.00
52669;DHT22;59898;52.786;6.892;2023-07-20T04:47:36;15.30;82.20
52669;DHT22;59898;52.786;6.892;2023-07-20T04:50:56;15.30;82.00
52669;DHT22;59898;52.786;6.892;2023-07-20T04:54:17;15.30;81.90
52669;DHT22;59898;52.786;6.892;2023-07-20T04:57:38;15.30;81.90
52669;DHT22;59898;52.786;6.892;2023-07-20T05:00:59;15.30;81.70
52669;DHT22;59898;52.786;6.892;2023-07-20T05:04:19;15.30;81.70
52669;DHT22;59898;52.786;6.892;2023-07-20T05:07:40;15.30;81.80
52669;DHT22;59898;52.786;6.892;2023-07-20T05:11:01;15.30;81.80
52669;DHT22;59898;52.786;6.892;2023-07-20T05:14:21;15.30;81.80
52669;DHT22;59898;52.786;6.892;2023-07-20T05:17:42;15.40;81.70
52669;DHT22;59898;52.786;6.892;2023-07-20T05:21:03;15.40;81.70
52669;DHT22;59898;52.786;6.892;2023-07-20T05:24:23;15.40;81.80
52669;DHT22;59898;52.786;6.892;2023-07-20T05:27:44;15.40;81.60
52669;DHT22;59898;52.786;6.892;2023-07-20T05:31:06;15.40;81.50
52669;DHT22;59898;52.786;6.892;2023-07-20T05:34:27;15.50;81.50
52669;DHT22;59898;52.786;6.892;2023-07-20T05:37:48;15.50;81.40
52669;DHT22;59898;52.786;6.892;2023-07-20T05:41:08;15.60;81.30
52669;DHT22;59898;52.786;6.892;2023-07-20T05:44:30;15.60;81.10
52669;DHT22;59898;52.786;6.892;2023-07-20T05:47:51;15.70;81.00
52669;DHT22;59898;52.786;6.892;2023-07-20T05:51:11;15.70;80.80
52669;DHT22;59898;52.786;6.892;2023-07-20T05:54:32;15.70;80.80
52669;DHT22;59898;52.786;6.892;2023-07-20T05:57:52;15.80;80.80
52669;DHT22;59898;52.786;6.892;2023-07-20T06:01:15;15.80;80.70
52669;DHT22;59898;52.786;6.892;2023-07-20T06:04:35;15.90;80.50
52669;DHT22;59898;52.786;6.892;2023-07-20T06:07:56;16.00;80.20
52669;DHT22;59898;52.786;6.892;2023-07-20T06:11:17;16.00;79.90
52669;DHT22;59898;52.786;6.892;2023-07-20T06:14:38;16.10;79.60
52669;DHT22;59898;52.786;6.892;2023-07-20T06:18:00;16.20;79.20
52669;DHT22;59898;52.786;6.892;2023-07-20T06:21:21;16.20;78.90
52669;DHT22;59898;52.786;6.892;2023-07-20T06:24:42;16.30;78.70
52669;DHT22;59898;52.786;6.892;2023-07-20T06:28:02;16.40;78.30
52669;DHT22;59898;52.786;6.892;2023-07-20T06:31:25;16.50;77.90
52669;DHT22;59898;52.786;6.892;2023-07-20T06:34:45;16.50;77.50
52669;DHT22;59898;52.786;6.892;2023-07-20T06:38:07;16.60;77.30
52669;DHT22;59898;52.786;6.892;2023-07-20T06:41:28;16.70;76.90
52669;DHT22;59898;52.786;6.892;2023-07-20T06:44:49;16.80;76.70
52669;DHT22;59898;52.786;6.892;2023-07-20T06:48:10;16.90;75.90
52669;DHT22;59898;52.786;6.892;2023-07-20T06:51:30;17.00;75.90
52669;DHT22;59898;52.786;6.892;2023-07-20T06:54:51;17.10;75.60
52669;DHT22;59898;52.786;6.892;2023-07-20T06:58:11;17.10;75.40
52669;DHT22;59898;52.786;6.892;2023-07-20T07:01:32;17.30;74.80
52669;DHT22;59898;52.786;6.892;2023-07-20T07:04:53;17.40;74.40
52669;DHT22;59898;52.786;6.892;2023-07-20T07:08:14;17.50;74.20
52669;DHT22;59898;52.786;6.892;2023-07-20T07:11:34;17.60;73.80
52669;DHT22;59898;52.786;6.892;2023-07-20T07:14:55;17.60;73.40
52669;DHT22;59898;52.786;6.892;2023-07-20T07:18:15;17.70;73.50
52669;DHT22;59898;52.786;6.892;2023-07-20T07:21:36;17.80;73.20
52669;DHT22;59898;52.786;6.892;2023-07-20T07:24:56;18.00;72.40
52669;DHT22;59898;52.786;6.892;2023-07-20T07:28:17;18.20;71.80
52669;DHT22;59898;52.786;6.892;2023-07-20T07:31:37;18.30;71.60
52669;DHT22;59898;52.786;6.892;2023-07-20T07:34:58;18.50;71.10
52669;DHT22;59898;52.786;6.892;2023-07-20T07:38:20;18.70;70.70
52669;DHT22;59898;52.786;6.892;2023-07-20T07:41:41;18.90;70.10
52669;DHT22;59898;52.786;6.892;2023-07-20T07:45:02;19.00;69.30
52669;DHT22;59898;52.786;6.892;2023-07-20T07:48:22;19.10;67.90
52669;DHT22;59898;52.786;6.892;2023-07-20T07:51:45;19.10;67.20
52669;DHT22;59898;52.786;6.892;2023-07-20T07:55:06;19.10;66.90
52669;DHT22;59898;52.786;6.892;2023-07-20T07:58:27;19.20;66.10
52669;DHT22;59898;52.786;6.892;2023-07-20T08:01:48;19.30;65.50
52669;DHT22;59898;52.786;6.892;2023-07-20T08:05:09;19.40;65.10
52669;DHT22;59898;52.786;6.892;2023-07-20T08:08:30;19.60;64.50
52669;DHT22;59898;52.786;6.892;2023-07-20T08:11:50;19.80;63.80
52669;DHT22;59898;52.786;6.892;2023-07-20T08:15:11;19.70;62.60
52669;DHT22;59898;52.786;6.892;2023-07-20T08:18:34;19.70;62.70
52669;DHT22;59898;52.786;6.892;2023-07-20T08:21:55;19.80;62.50
52669;DHT22;59898;52.786;6.892;2023-07-20T08:25:15;20.00;61.90
52669;DHT22;59898;52.786;6.892;2023-07-20T08:28:36;20.20;61.40
52669;DHT22;59898;52.786;6.892;2023-07-20T08:31:56;20.20;61.00
52669;DHT22;59898;52.786;6.892;2023-07-20T08:35:17;20.20;61.20
52669;DHT22;59898;52.786;6.892;2023-07-20T08:38:38;20.30;60.20
52669;DHT22;59898;52.786;6.892;2023-07-20T08:42:01;20.40;59.30
52669;DHT22;59898;52.786;6.892;2023-07-20T08:45:27;20.40;59.50
52669;DHT22;59898;52.786;6.892;2023-07-20T08:48:52;20.50;59.10
52669;DHT22;59898;52.786;6.892;2023-07-20T08:52:13;20.50;59.90
52669;DHT22;59898;52.786;6.892;2023-07-20T08:55:34;20.90;59.20
52669;DHT22;59898;52.786;6.892;2023-07-20T08:58:56;21.30;57.60
52669;DHT22;59898;52.786;6.892;2023-07-20T09:02:17;21.70;56.50
52669;DHT22;59898;52.786;6.892;2023-07-20T09:05:38;21.90;56.10
52669;DHT22;59898;52.786;6.892;2023-07-20T09:09:00;22.20;55.20
52669;DHT22;59898;52.786;6.892;2023-07-20T09:12:21;22.40;54.60
52669;DHT22;59898;52.786;6.892;2023-07-20T09:15:52;22.50;54.10
52669;DHT22;59898;52.786;6.892;2023-07-20T09:19:17;22.60;53.10
52669;DHT22;59898;52.786;6.892;2023-07-20T09:22:38;22.60;52.70
52669;DHT22;59898;52.786;6.892;2023-07-20T09:26:12;22.70;52.70
52669;DHT22;59898;52.786;6.892;2023-07-20T09:29:33;22.80;52.10
52669;DHT22;59898;52.786;6.892;2023-07-20T09:32:53;22.80;51.80
52669;DHT22;59898;52.786;6.892;2023-07-20T09:36:14;22.90;51.10
52669;DHT22;59898;52.786;6.892;2023-07-20T09:39:45;23.00;50.70
52669;DHT22;59898;52.786;6.892;2023-07-20T09:43:08;23.00;49.60
52669;DHT22;59898;52.786;6.892;2023-07-20T09:46:41;23.20;49.50
52669;DHT22;59898;52.786;6.892;2023-07-20T09:50:02;23.30;48.10
52669;DHT22;59898;52.786;6.892;2023-07-20T09:53:25;23.30;48.50
52669;DHT22;59898;52.786;6.892;2023-07-20T09:56:48;23.40;48.60
52669;DHT22;59898;52.786;6.892;2023-07-20T10:00:11;23.40;47.60
52669;DHT22;59898;52.786;6.892;2023-07-20T10:03:33;23.50;46.90
52669;DHT22;59898;52.786;6.892;2023-07-20T10:07:00;23.60;44.00
52669;DHT22;59898;52.786;6.892;2023-07-20T10:10:24;23.70;46.00
52669;DHT22;59898;52.786;6.892;2023-07-20T10:13:46;23.70;45.70
52669;DHT22;59898;52.786;6.892;2023-07-20T10:17:11;23.70;45.00
52669;DHT22;59898;52.786;6.892;2023-07-20T10:20:36;23.50;45.10
52669;DHT22;59898;52.786;6.892;2023-07-20T10:23:59;23.30;45.60
52669;DHT22;59898;52.786;6.892;2023-07-20T10:27:21;23.30;45.60
52669;DHT22;59898;52.786;6.892;2023-07-20T10:30:42;23.40;45.70
52669;DHT22;59898;52.786;6.892;2023-07-20T10:34:03;23.20;45.10
52669;DHT22;59898;52.786;6.892;2023-07-20T10:41:18;23.00;44.40
52669;DHT22;59898;52.786;6.892;2023-07-20T10:44:42;23.00;44.90
52669;DHT22;59898;52.786;6.892;2023-07-20T10:48:20;22.90;45.20
52669;DHT22;59898;52.786;6.892;2023-07-20T10:51:48;22.90;45.60
52669;DHT22;59898;52.786;6.892;2023-07-20T10:55:16;22.80;46.70
52669;DHT22;59898;52.786;6.892;2023-07-20T10:58:37;22.80;46.30
52669;DHT22;59898;52.786;6.892;2023-07-20T11:01:57;22.70;46.40
52669;DHT22;59898;52.786;6.892;2023-07-20T11:05:35;22.60;47.40
52669;DHT22;59898;52.786;6.892;2023-07-20T11:12:20;22.20;49.60
52669;DHT22;59898;52.786;6.892;2023-07-20T11:19:22;21.60;50.20
52669;DHT22;59898;52.786;6.892;2023-07-20T11:22:46;21.30;51.30
52669;DHT22;59898;52.786;6.892;2023-07-20T11:26:07;21.10;52.50
52669;DHT22;59898;52.786;6.892;2023-07-20T11:29:28;21.00;52.90
52669;DHT22;59898;52.786;6.892;2023-07-20T11:32:48;20.80;53.80
52669;DHT22;59898;52.786;6.892;2023-07-20T11:36:09;20.90;54.70
52669;DHT22;59898;52.786;6.892;2023-07-20T11:39:30;20.80;55.60
52669;DHT22;59898;52.786;6.892;2023-07-20T11:42:50;20.70;56.40
52669;DHT22;59898;52.786;6.892;2023-07-20T11:46:12;20.70;56.40
52669;DHT22;59898;52.786;6.892;2023-07-20T11:49:43;20.70;56.00
52669;DHT22;59898;52.786;6.892;2023-07-20T11:53:03;20.70;55.70
52669;DHT22;59898;52.786;6.892;2023-07-20T11:56:25;20.60;55.50
52669;DHT22;59898;52.786;6.892;2023-07-20T12:00:03;20.60;55.90
52669;DHT22;59898;52.786;6.892;2023-07-20T12:03:29;20.60;55.60
52669;DHT22;59898;52.786;6.892;2023-07-20T12:06:50;20.50;55.50
52669;DHT22;59898;52.786;6.892;2023-07-20T12:10:13;20.60;55.60
52669;DHT22;59898;52.786;6.892;2023-07-20T12:13:43;20.60;54.90
52669;DHT22;59898;52.786;6.892;2023-07-20T12:17:04;20.80;54.60
52669;DHT22;59898;52.786;6.892;2023-07-20T12:20:33;20.80;54.70
52669;DHT22;59898;52.786;6.892;2023-07-20T12:23:58;20.80;54.90
52669;DHT22;59898;52.786;6.892;2023-07-20T12:27:18;20.90;55.60
52669;DHT22;59898;52.786;6.892;2023-07-20T12:30:40;21.00;55.70
52669;DHT22;59898;52.786;6.892;2023-07-20T12:34:01;21.00;55.80
52669;DHT22;59898;52.786;6.892;2023-07-20T12:37:21;21.10;55.60
52669;DHT22;59898;52.786;6.892;2023-07-20T12:40:42;21.10;55.70
52669;DHT22;59898;52.786;6.892;2023-07-20T12:44:03;21.30;55.30
52669;DHT22;59898;52.786;6.892;2023-07-20T12:47:24;21.40;55.30
52669;DHT22;59898;52.786;6.892;2023-07-20T12:50:44;21.60;54.70
52669;DHT22;59898;52.786;6.892;2023-07-20T12:54:05;21.60;54.60
52669;DHT22;59898;52.786;6.892;2023-07-20T12:57:25;21.60;53.20
52669;DHT22;59898;52.786;6.892;2023-07-20T13:00:46;21.50;52.70
52669;DHT22;59898;52.786;6.892;2023-07-20T13:04:07;21.50;52.60
52669;DHT22;59898;52.786;6.892;2023-07-20T13:10:51;21.60;52.10
52669;DHT22;59898;52.786;6.892;2023-07-20T13:14:12;21.70;52.00
52669;DHT22;59898;52.786;6.892;2023-07-20T13:17:40;21.80;51.80
52669;DHT22;59898;52.786;6.892;2023-07-20T13:21:00;21.90;51.60
52669;DHT22;59898;52.786;6.892;2023-07-20T13:24:21;22.00;51.50
52669;DHT22;59898;52.786;6.892;2023-07-20T13:27:41;22.10;51.30
52669;DHT22;59898;52.786;6.892;2023-07-20T13:31:02;22.10;51.80
52669;DHT22;59898;52.786;6.892;2023-07-20T13:34:22;22.10;51.80
52669;DHT22;59898;52.786;6.892;2023-07-20T13:37:44;22.00;52.20
52669;DHT22;59898;52.786;6.892;2023-07-20T13:41:04;21.90;52.70
52669;DHT22;59898;52.786;6.892;2023-07-20T13:44:25;21.80;52.80
52669;DHT22;59898;52.786;6.892;2023-07-20T13:47:45;21.80;53.20
52669;DHT22;59898;52.786;6.892;2023-07-20T13:51:06;21.70;53.50
52669;DHT22;59898;52.786;6.892;2023-07-20T13:54:26;21.50;54.00
52669;DHT22;59898;52.786;6.892;2023-07-20T13:57:47;21.50;53.50
52669;DHT22;59898;52.786;6.892;2023-07-20T14:01:08;21.50;53.50
52669;DHT22;59898;52.786;6.892;2023-07-20T14:04:28;21.50;53.50
52669;DHT22;59898;52.786;6.892;2023-07-20T14:07:49;21.60;53.70
52669;DHT22;59898;52.786;6.892;2023-07-20T14:11:10;21.80;53.80
52669;DHT22;59898;52.786;6.892;2023-07-20T14:14:31;22.10;53.50
52669;DHT22;59898;52.786;6.892;2023-07-20T14:17:51;22.20;51.70
52669;DHT22;59898;52.786;6.892;2023-07-20T14:21:12;22.40;51.00
52669;DHT22;59898;52.786;6.892;2023-07-20T14:24:32;22.40;51.10
52669;DHT22;59898;52.786;6.892;2023-07-20T14:27:53;22.40;51.50
52669;DHT22;59898;52.786;6.892;2023-07-20T14:31:14;22.30;51.70
52669;DHT22;59898;52.786;6.892;2023-07-20T14:34:34;22.20;52.10
52669;DHT22;59898;52.786;6.892;2023-07-20T14:37:55;22.20;52.30
52669;DHT22;59898;52.786;6.892;2023-07-20T14:41:15;22.30;52.30
52669;DHT22;59898;52.786;6.892;2023-07-20T14:44:36;22.30;52.10
52669;DHT22;59898;52.786;6.892;2023-07-20T14:47:56;22.20;52.40
52669;DHT22;59898;52.786;6.892;2023-07-20T14:51:17;22.20;52.60
52669;DHT22;59898;52.786;6.892;2023-07-20T14:54:38;22.10;52.90
52669;DHT22;59898;52.786;6.892;2023-07-20T14:57:58;22.10;53.20
52669;DHT22;59898;52.786;6.892;2023-07-20T15:01:19;22.10;53.20
52669;DHT22;59898;52.786;6.892;2023-07-20T15:04:49;22.00;53.30
52669;DHT22;59898;52.786;6.892;2023-07-20T15:08:11;21.90;53.60
52669;DHT22;59898;52.786;6.892;2023-07-20T15:11:31;22.10;53.10
52669;DHT22;59898;52.786;6.892;2023-07-20T15:18:24;22.10;52.40
52669;DHT22;59898;52.786;6.892;2023-07-20T15:21:46;22.10;52.70
52669;DHT22;59898;52.786;6.892;2023-07-20T15:25:07;22.10;52.50
52669;DHT22;59898;52.786;6.892;2023-07-20T15:28:29;22.10;52.20
52669;DHT22;59898;52.786;6.892;2023-07-20T15:31:49;22.10;52.40
52669;DHT22;59898;52.786;6.892;2023-07-20T15:35:10;22.00;52.10
52669;DHT22;59898;52.786;6.892;2023-07-20T15:38:31;22.00;51.90
52669;DHT22;59898;52.786;6.892;2023-07-20T15:41:51;21.90;51.90
52669;DHT22;59898;52.786;6.892;2023-07-20T15:45:12;21.80;52.10
52669;DHT22;59898;52.786;6.892;2023-07-20T15:48:32;21.70;52.60
52669;DHT22;59898;52.786;6.892;2023-07-20T15:51:54;21.70;52.80
52669;DHT22;59898;52.786;6.892;2023-07-20T15:55:14;21.70;52.80
52669;DHT22;59898;52.786;6.892;2023-07-20T15:58:35;21.60;52.80
52669;DHT22;59898;52.786;6.892;2023-07-20T16:01:56;21.70;52.80
52669;DHT22;59898;52.786;6.892;2023-07-20T16:05:16;21.80;52.80
52669;DHT22;59898;52.786;6.892;2023-07-20T16:08:37;22.00;52.50
52669;DHT22;59898;52.786;6.892;2023-07-20T16:11:57;22.10;52.30
52669;DHT22;59898;52.786;6.892;2023-07-20T16:15:18;22.20;52.10
52669;DHT22;59898;52.786;6.892;2023-07-20T16:18:39;22.20;52.00
52669;DHT22;59898;52.786;6.892;2023-07-20T16:21:59;22.20;52.00
52669;DHT22;59898;52.786;6.892;2023-07-20T16:25:20;22.30;51.80
52669;DHT22;59898;52.786;6.892;2023-07-20T16:28:41;22.30;51.60
52669;DHT22;59898;52.786;6.892;2023-07-20T16:32:03;22.40;51.80
52669;DHT22;59898;52.786;6.892;2023-07-20T16:35:24;22.50;51.80
52669;DHT22;59898;52.786;6.892;2023-07-20T16:38:44;22.50;51.60
52669;DHT22;59898;52.786;6.892;2023-07-20T16:42:05;22.50;51.40
52669;DHT22;59898;52.786;6.892;2023-07-20T16:45:26;22.50;51.60
52669;DHT22;59898;52.786;6.892;2023-07-20T16:48:46;22.60;51.50
52669;DHT22;59898;52.786;6.892;2023-07-20T16:52:07;22.60;51.40
52669;DHT22;59898;52.786;6.892;2023-07-20T16:55:28;22.50;51.40
52669;DHT22;59898;52.786;6.892;2023-07-20T16:58:48;22.40;51.70
52669;DHT22;59898;52.786;6.892;2023-07-20T17:02:09;22.30;51.40
52669;DHT22;59898;52.786;6.892;2023-07-20T17:05:29;22.30;51.40
52669;DHT22;59898;52.786;6.892;2023-07-20T17:08:50;22.20;51.70
52669;DHT22;59898;52.786;6.892;2023-07-20T17:12:11;22.10;52.00
52669;DHT22;59898;52.786;6.892;2023-07-20T17:15:31;22.10;52.30
52669;DHT22;59898;52.786;6.892;2023-07-20T17:18:52;22.10;52.40
52669;DHT22;59898;52.786;6.892;2023-07-20T17:22:13;22.10;52.50
52669;DHT22;59898;52.786;6.892;2023-07-20T17:25:36;22.00;52.60
52669;DHT22;59898;52.786;6.892;2023-07-20T17:28:56;22.00;52.90
52669;DHT22;59898;52.786;6.892;2023-07-20T17:32:18;21.90;53.40
52669;DHT22;59898;52.786;6.892;2023-07-20T17:35:38;21.80;54.00
52669;DHT22;59898;52.786;6.892;2023-07-20T17:39:00;21.40;54.90
52669;DHT22;59898;52.786;6.892;2023-07-20T17:42:21;21.10;55.60
52669;DHT22;59898;52.786;6.892;2023-07-20T17:45:41;20.90;56.40
52669;DHT22;59898;52.786;6.892;2023-07-20T17:49:02;20.70;56.80
52669;DHT22;59898;52.786;6.892;2023-07-20T17:52:24;20.60;57.20
52669;DHT22;59898;52.786;6.892;2023-07-20T17:55:45;20.60;57.40
52669;DHT22;59898;52.786;6.892;2023-07-20T17:59:05;20.60;57.60
52669;DHT22;59898;52.786;6.892;2023-07-20T18:02:26;20.60;57.80
52669;DHT22;59898;52.786;6.892;2023-07-20T18:05:48;20.50;58.40
52669;DHT22;59898;52.786;6.892;2023-07-20T18:09:08;20.40;58.70
52669;DHT22;59898;52.786;6.892;2023-07-20T18:12:30;20.30;59.20
52669;DHT22;59898;52.786;6.892;2023-07-20T18:15:55;20.20;59.50
52669;DHT22;59898;52.786;6.892;2023-07-20T18:19:18;20.20;59.70
52669;DHT22;59898;52.786;6.892;2023-07-20T18:22:39;20.10;60.00
52669;DHT22;59898;52.786;6.892;2023-07-20T18:25:59;20.10;60.10
52669;DHT22;59898;52.786;6.892;2023-07-20T18:29:20;20.20;60.30
52669;DHT22;59898;52.786;6.892;2023-07-20T18:32:40;20.20;60.80
52669;DHT22;59898;52.786;6.892;2023-07-20T18:36:01;20.00;61.50
52669;DHT22;59898;52.786;6.892;2023-07-20T18:39:21;19.90;62.10
52669;DHT22;59898;52.786;6.892;2023-07-20T18:42:42;19.90;62.20
52669;DHT22;59898;52.786;6.892;2023-07-20T18:46:02;19.80;62.20
52669;DHT22;59898;52.786;6.892;2023-07-20T18:49:23;19.80;62.20
52669;DHT22;59898;52.786;6.892;2023-07-20T18:52:46;19.80;62.50
52669;DHT22;59898;52.786;6.892;2023-07-20T18:56:06;19.70;63.00
52669;DHT22;59898;52.786;6.892;2023-07-20T18:59:27;19.70;63.40
52669;DHT22;59898;52.786;6.892;2023-07-20T19:02:48;19.60;63.60
52669;DHT22;59898;52.786;6.892;2023-07-20T19:06:08;19.50;63.90
52669;DHT22;59898;52.786;6.892;2023-07-20T19:09:29;19.50;64.20
52669;DHT22;59898;52.786;6.892;2023-07-20T19:12:51;19.40;64.50
52669;DHT22;59898;52.786;6.892;2023-07-20T19:16:11;19.40;64.80
52669;DHT22;59898;52.786;6.892;2023-07-20T19:19:32;19.30;65.00
52669;DHT22;59898;52.786;6.892;2023-07-20T19:22:53;19.20;65.30
52669;DHT22;59898;52.786;6.892;2023-07-20T19:26:13;19.20;65.30
52669;DHT22;59898;52.786;6.892;2023-07-20T19:29:35;19.10;65.50
52669;DHT22;59898;52.786;6.892;2023-07-20T19:32:55;19.10;65.40
52669;DHT22;59898;52.786;6.892;2023-07-20T19:36:16;19.00;65.50
52669;DHT22;59898;52.786;6.892;2023-07-20T19:39:40;19.00;65.90
52669;DHT22;59898;52.786;6.892;2023-07-20T19:43:01;18.90;65.80
52669;DHT22;59898;52.786;6.892;2023-07-20T19:46:23;18.80;66.20
52669;DHT22;59898;52.786;6.892;2023-07-20T19:49:44;18.80;67.10
52669;DHT22;59898;52.786;6.892;2023-07-20T19:53:04;18.80;66.20
52669;DHT22;59898;52.786;6.892;2023-07-20T19:56:25;18.80;66.20
52669;DHT22;59898;52.786;6.892;2023-07-20T19:59:48;18.80;66.30
52669;DHT22;59898;52.786;6.892;2023-07-20T20:03:09;18.80;66.40
52669;DHT22;59898;52.786;6.892;2023-07-20T20:06:29;18.80;66.70
52669;DHT22;59898;52.786;6.892;2023-07-20T20:09:50;18.80;66.90
52669;DHT22;59898;52.786;6.892;2023-07-20T20:13:12;18.80;67.60
52669;DHT22;59898;52.786;6.892;2023-07-20T20:16:33;18.90;67.60
52669;DHT22;59898;52.786;6.892;2023-07-20T20:19:53;18.80;68.20
52669;DHT22;59898;52.786;6.892;2023-07-20T20:23:18;18.70;68.50
52669;DHT22;59898;52.786;6.892;2023-07-20T20:26:39;18.60;69.20
52669;DHT22;59898;52.786;6.892;2023-07-20T20:30:01;18.50;69.60
52669;DHT22;59898;52.786;6.892;2023-07-20T20:33:21;18.40;70.00
52669;DHT22;59898;52.786;6.892;2023-07-20T20:36:43;18.30;70.50
52669;DHT22;59898;52.786;6.892;2023-07-20T20:40:04;18.20;70.70
52669;DHT22;59898;52.786;6.892;2023-07-20T20:43:25;18.10;71.20
52669;DHT22;59898;52.786;6.892;2023-07-20T20:46:50;18.00;71.70
52669;DHT22;59898;52.786;6.892;2023-07-20T20:50:10;17.90;71.70
52669;DHT22;59898;52.786;6.892;2023-07-20T20:53:31;17.80;71.60
52669;DHT22;59898;52.786;6.892;2023-07-20T20:56:51;17.80;71.70
52669;DHT22;59898;52.786;6.892;2023-07-20T21:00:12;17.80;71.70
52669;DHT22;59898;52.786;6.892;2023-07-20T21:03:34;17.70;71.70
52669;DHT22;59898;52.786;6.892;2023-07-20T21:06:55;17.60;71.80
52669;DHT22;59898;52.786;6.892;2023-07-20T21:10:15;17.60;72.00
52669;DHT22;59898;52.786;6.892;2023-07-20T21:13:36;17.50;72.20
52669;DHT22;59898;52.786;6.892;2023-07-20T21:16:57;17.40;72.80
52669;DHT22;59898;52.786;6.892;2023-07-20T21:20:17;17.30;72.90
52669;DHT22;59898;52.786;6.892;2023-07-20T21:23:40;17.30;72.80
52669;DHT22;59898;52.786;6.892;2023-07-20T21:27:00;17.30;72.90
52669;DHT22;59898;52.786;6.892;2023-07-20T21:30:21;17.20;73.20
52669;DHT22;59898;52.786;6.892;2023-07-20T21:33:44;17.10;73.30
52669;DHT22;59898;52.786;6.892;2023-07-20T21:37:05;17.00;73.60